createdAt,value
2018-11-05T00:00:25.128Z,91.71
2018-11-05T00:02:54.132Z,91.88
2018-11-05T00:05:23.220Z,91.30
2018-11-05T00:07:52.283Z,92.54
2018-11-05T00:10:21.260Z,92.61
2018-11-05T00:12:50.194Z,92.07
2018-11-05T00:15:19.089Z,91.81
2018-11-05T00:17:48.007Z,92.60
2018-11-05T00:20:16.969Z,92.37
2018-11-05T00:22:45.931Z,92.78
2018-11-05T00:25:14.978Z,92.68
2018-11-05T00:27:43.980Z,93.02
2018-11-05T00:30:13.890Z,93.09
2018-11-05T00:32:44.516Z,92.32
2018-11-05T00:35:13.820Z,93.43
2018-11-05T00:37:42.812Z,93.24
2018-11-05T00:40:14.258Z,93.63
2018-11-05T00:42:44.008Z,93.20
2018-11-05T00:45:13.378Z,93.21
2018-11-05T00:47:42.781Z,93.05
2018-11-05T00:50:13.327Z,92.90
2018-11-05T00:52:42.279Z,93.87
2018-11-05T00:55:11.940Z,93.46
2018-11-05T00:57:40.888Z,93.62
2018-11-05T01:00:12.672Z,93.48
2018-11-05T01:02:42.080Z,94.07
2018-11-05T01:05:12.445Z,93.83
2018-11-05T01:07:42.030Z,92.98
2018-11-05T01:10:12.258Z,93.32
2018-11-05T01:12:41.286Z,93.69
2018-11-05T01:15:12.387Z,93.01
2018-11-05T01:17:41.559Z,93.84
2018-11-05T01:20:11.745Z,94.36
2018-11-05T01:22:40.774Z,94.04
2018-11-05T01:25:09.871Z,94.76
2018-11-05T01:27:38.973Z,95.18
2018-11-05T01:30:11.151Z,95.52
2018-11-05T01:32:40.100Z,96.05
2018-11-05T01:35:10.675Z,95.95
2018-11-05T01:37:39.612Z,95.43
2018-11-05T01:40:10.498Z,95.39
2018-11-05T01:42:39.525Z,95.24
2018-11-05T01:45:09.718Z,95.40
2018-11-05T01:47:38.834Z,94.44
2018-11-05T01:50:09.256Z,94.83
2018-11-05T01:52:38.313Z,94.32
2018-11-05T01:55:07.877Z,94.82
2018-11-05T01:57:36.952Z,94.62
2018-11-05T02:00:08.603Z,93.24
2018-11-05T02:02:37.527Z,93.83
2018-11-05T02:05:07.177Z,94.54
2018-11-05T02:07:36.077Z,94.05
2018-11-05T02:10:08.020Z,94.50
2018-11-05T02:12:36.883Z,94.67
2018-11-05T02:15:06.270Z,94.48
2018-11-05T02:17:35.234Z,94.45
2018-11-05T02:20:05.707Z,94.61
2018-11-05T02:22:34.688Z,94.54
2018-11-05T02:25:03.676Z,94.89
2018-11-05T02:27:32.645Z,94.50
2018-11-05T02:30:01.876Z,93.60
2018-11-05T02:32:31.061Z,93.90
2018-11-05T02:35:00.084Z,93.24
2018-11-05T02:37:29.228Z,93.70
2018-11-05T02:39:58.177Z,93.65
2018-11-05T02:42:27.134Z,93.80
2018-11-05T02:44:56.167Z,93.46
2018-11-05T02:47:25.083Z,93.92
2018-11-05T02:49:54.113Z,94.33
2018-11-05T02:52:23.093Z,94.44
2018-11-05T02:54:52.066Z,95.00
2018-11-05T02:57:21.365Z,95.62
2018-11-05T02:59:50.313Z,94.86
2018-11-05T03:02:19.619Z,95.08
2018-11-05T03:04:48.732Z,95.19
2018-11-05T03:07:17.662Z,94.66
2018-11-05T03:09:46.679Z,94.41
2018-11-05T03:12:15.641Z,94.53
2018-11-05T03:14:46.533Z,95.29
2018-11-05T03:17:15.440Z,95.13
2018-11-05T03:19:44.370Z,95.24
2018-11-05T03:22:13.400Z,95.37
2018-11-05T03:24:42.573Z,95.83
2018-11-05T03:27:11.524Z,96.41
2018-11-05T03:29:40.495Z,96.04
2018-11-05T03:32:09.431Z,96.04
2018-11-05T03:34:38.418Z,95.25
2018-11-05T03:37:07.369Z,95.97
2018-11-05T03:39:36.357Z,94.86
2018-11-05T03:42:05.852Z,95.17
2018-11-05T03:44:34.794Z,94.35
2018-11-05T03:47:03.882Z,94.01
2018-11-05T03:49:33.017Z,93.84
2018-11-05T03:52:01.962Z,93.93
2018-11-05T03:54:31.000Z,93.66
2018-11-05T03:57:00.070Z,92.37
2018-11-05T03:59:29.013Z,92.56
2018-11-05T04:01:57.979Z,92.49
2018-11-05T04:04:26.900Z,91.78
2018-11-05T04:06:55.888Z,90.61
2018-11-05T04:09:24.854Z,90.12
2018-11-05T04:11:53.785Z,89.31
2018-11-05T04:14:22.815Z,89.80
2018-11-05T04:16:52.182Z,89.62
2018-11-05T04:19:25.649Z,89.22
2018-11-05T04:21:54.591Z,88.51
2018-11-05T04:24:23.572Z,88.15
2018-11-05T04:26:52.725Z,88.33
2018-11-05T04:29:21.757Z,89.24
2018-11-05T04:31:50.708Z,88.53
2018-11-05T04:34:19.629Z,88.17
2018-11-05T04:36:48.669Z,88.33
2018-11-05T04:39:17.599Z,88.08
2018-11-05T04:41:46.574Z,87.85
2018-11-05T04:44:15.684Z,87.86
2018-11-05T04:46:44.609Z,86.83
2018-11-05T04:49:13.917Z,87.32
2018-11-05T04:51:42.930Z,86.97
2018-11-05T04:54:11.891Z,86.70
2018-11-05T04:56:40.877Z,86.21
2018-11-05T04:59:09.885Z,86.42
2018-11-05T05:01:38.831Z,85.59
2018-11-05T05:04:07.773Z,85.79
2018-11-05T05:06:36.715Z,85.77
2018-11-05T05:09:08.546Z,85.91
2018-11-05T05:11:37.575Z,85.53
2018-11-05T05:14:07.439Z,86.01
2018-11-05T05:16:36.658Z,85.92
2018-11-05T05:19:05.601Z,85.45
2018-11-05T05:21:34.639Z,84.89
2018-11-05T05:24:03.840Z,85.28
2018-11-05T05:26:32.785Z,85.21
2018-11-05T05:29:01.850Z,85.71
2018-11-05T05:31:30.955Z,85.76
2018-11-05T05:33:59.899Z,85.08
2018-11-05T05:36:29.211Z,86.87
2018-11-05T05:38:58.165Z,86.62
2018-11-05T05:41:27.104Z,86.67
2018-11-05T05:43:56.037Z,86.88
2018-11-05T05:46:25.100Z,86.81
2018-11-05T05:48:54.077Z,86.68
2018-11-05T05:51:23.047Z,86.49
2018-11-05T05:53:52.010Z,86.68
2018-11-05T05:56:21.164Z,86.28
2018-11-05T05:58:50.342Z,86.70
2018-11-05T06:01:19.562Z,86.70
2018-11-05T06:03:48.522Z,86.96
2018-11-05T06:06:17.670Z,87.12
2018-11-05T06:08:46.432Z,86.79
2018-11-05T06:11:15.575Z,87.27
2018-11-05T06:13:44.566Z,86.89
2018-11-05T06:16:13.488Z,87.14
2018-11-05T06:18:42.419Z,86.54
2018-11-05T06:21:13.606Z,85.94
2018-11-05T06:23:43.084Z,86.46
2018-11-05T06:26:12.046Z,86.42
2018-11-05T06:28:41.096Z,85.52
2018-11-05T06:31:10.022Z,85.04
2018-11-05T06:33:38.953Z,84.57
2018-11-05T06:36:07.916Z,84.75
2018-11-05T06:38:36.842Z,84.12
2018-11-05T06:41:06.535Z,83.98
2018-11-05T06:43:35.498Z,84.12
2018-11-05T06:46:04.473Z,83.61
2018-11-05T06:48:33.397Z,82.61
2018-11-05T06:51:02.515Z,82.79
2018-11-05T06:53:31.534Z,82.73
2018-11-05T06:56:00.540Z,82.54
2018-11-05T06:58:29.535Z,83.10
2018-11-05T07:00:58.609Z,82.59
2018-11-05T07:03:27.585Z,82.81
2018-11-05T07:05:56.553Z,82.97
2018-11-05T07:08:25.493Z,83.44
2018-11-05T07:10:54.580Z,83.12
2018-11-05T07:13:23.508Z,82.57
2018-11-05T07:15:52.486Z,82.46
2018-11-05T07:18:21.456Z,82.20
2018-11-05T07:20:50.353Z,82.01
2018-11-05T07:23:19.332Z,82.29
2018-11-05T07:25:48.260Z,81.84
2018-11-05T07:28:17.184Z,81.53
2018-11-05T07:30:46.123Z,81.35
2018-11-05T07:33:15.261Z,81.17
2018-11-05T07:35:44.159Z,81.59
2018-11-05T07:38:13.098Z,81.23
2018-11-05T07:40:42.031Z,80.90
2018-11-05T07:43:10.984Z,80.38
2018-11-05T07:45:39.886Z,80.63
2018-11-05T07:48:08.813Z,80.21
2018-11-05T07:50:37.793Z,80.96
2018-11-05T07:53:06.756Z,80.11
2018-11-05T07:55:35.712Z,80.06
2018-11-05T07:58:04.754Z,79.84
2018-11-05T08:00:44.966Z,80.41
2018-11-05T08:03:13.893Z,79.86
2018-11-05T08:05:42.863Z,79.37
2018-11-05T08:08:11.869Z,78.87
2018-11-05T08:10:40.764Z,79.39
2018-11-05T08:13:09.783Z,78.79
2018-11-05T08:15:38.736Z,79.08
2018-11-05T08:18:07.740Z,78.79
2018-11-05T08:20:36.650Z,77.80
2018-11-05T08:23:05.617Z,78.17
2018-11-05T08:25:34.909Z,77.80
2018-11-05T08:28:04.122Z,77.03
2018-11-05T08:30:33.066Z,75.95
2018-11-05T08:33:02.074Z,75.80
2018-11-05T08:35:31.013Z,75.81
2018-11-05T08:37:59.945Z,75.07
2018-11-05T08:40:28.884Z,74.89
2018-11-05T08:42:58.112Z,74.06
2018-11-05T08:45:28.649Z,74.32
2018-11-05T08:47:57.618Z,73.96
2018-11-05T08:50:26.622Z,72.66
2018-11-05T08:52:55.550Z,72.96
2018-11-05T08:55:25.647Z,71.71
2018-11-05T08:57:54.634Z,71.68
2018-11-05T09:00:28.866Z,71.11
2018-11-05T09:02:57.823Z,71.93
2018-11-05T09:05:26.773Z,71.39
2018-11-05T09:07:56.166Z,71.92
2018-11-05T09:10:25.368Z,72.57
2018-11-05T09:12:54.234Z,72.11
2018-11-05T09:15:23.532Z,72.25
2018-11-05T09:17:52.789Z,71.57
2018-11-05T09:20:21.731Z,71.87
2018-11-05T09:22:51.369Z,71.53
2018-11-05T09:25:20.338Z,70.99
2018-11-05T09:27:49.357Z,70.75
2018-11-05T09:30:19.537Z,71.19
2018-11-05T09:32:48.469Z,70.69
2018-11-05T09:35:17.439Z,70.87
2018-11-05T09:37:46.460Z,69.83
2018-11-05T09:40:17.360Z,69.46
2018-11-05T09:42:46.944Z,68.30
2018-11-05T09:45:17.950Z,67.87
2018-11-05T09:47:47.218Z,68.18
2018-11-05T09:50:16.629Z,67.11
2018-11-05T09:52:45.608Z,65.95
2018-11-05T09:55:15.158Z,66.71
2018-11-05T09:57:44.249Z,67.27
2018-11-05T10:00:15.973Z,65.13
2018-11-05T10:02:50.299Z,64.46
2018-11-05T10:05:19.327Z,65.65
2018-11-05T10:07:48.187Z,64.50
2018-11-05T10:10:17.828Z,65.48
2018-11-05T10:12:46.720Z,65.59
2018-11-05T10:15:16.823Z,64.03
2018-11-05T10:17:47.007Z,63.85
2018-11-05T10:20:19.725Z,63.20
2018-11-05T10:22:48.683Z,63.12
2018-11-05T10:25:17.864Z,64.12
2018-11-05T10:27:47.320Z,62.10
2018-11-05T10:30:19.343Z,60.26
2018-11-05T10:32:48.273Z,60.26
2018-11-05T10:35:17.651Z,59.32
2018-11-05T10:37:46.837Z,57.83
2018-11-05T10:40:17.800Z,58.10
2018-11-05T10:42:47.288Z,57.92
2018-11-05T10:45:18.756Z,58.68
2018-11-05T10:47:47.837Z,58.04
2018-11-05T10:50:17.786Z,59.33
2018-11-05T10:52:48.192Z,58.95
2018-11-05T10:55:17.162Z,58.58
2018-11-05T10:57:46.368Z,58.65
2018-11-05T11:01:21.530Z,57.91
2018-11-05T11:03:55.940Z,57.89
2018-11-05T11:06:24.881Z,57.15
2018-11-05T11:08:53.870Z,58.17
2018-11-05T11:11:22.937Z,57.40
2018-11-05T11:13:51.881Z,57.98
2018-11-05T11:16:20.845Z,56.49
2018-11-05T11:18:49.788Z,56.89
2018-11-05T11:21:18.722Z,56.78
2018-11-05T11:23:47.711Z,56.97
2018-11-05T11:26:16.640Z,58.46
2018-11-05T11:28:45.818Z,56.96
2018-11-05T11:31:14.724Z,57.40
2018-11-05T11:33:43.676Z,56.78
2018-11-05T11:36:12.781Z,55.24
2018-11-05T11:38:41.740Z,55.36
2018-11-05T11:41:10.660Z,55.90
2018-11-05T11:43:39.623Z,54.87
2018-11-05T11:46:08.551Z,55.53
2018-11-05T11:48:37.560Z,55.93
2018-11-05T11:51:08.618Z,56.06
2018-11-05T11:53:38.173Z,55.72
2018-11-05T11:56:07.104Z,55.87
2018-11-05T11:58:36.046Z,56.85
2018-11-05T12:01:05.033Z,57.25
2018-11-05T12:03:34.062Z,57.08
2018-11-05T12:06:03.010Z,57.11
2018-11-05T12:08:31.969Z,57.54
2018-11-05T12:11:01.235Z,58.11
2018-11-05T12:13:30.353Z,57.87
2018-11-05T12:15:59.377Z,57.70
2018-11-05T12:18:28.314Z,58.02
2018-11-05T12:20:57.315Z,58.34
2018-11-05T12:23:26.249Z,57.83
2018-11-05T12:25:55.204Z,57.99
2018-11-05T12:28:25.135Z,58.65
2018-11-05T12:30:54.177Z,59.57
2018-11-05T12:33:23.183Z,60.08
2018-11-05T12:35:52.192Z,60.19
2018-11-05T12:38:21.192Z,60.22
2018-11-05T12:40:50.119Z,60.92
2018-11-05T12:43:19.081Z,61.47
2018-11-05T12:45:48.022Z,61.99
2018-11-05T12:48:16.920Z,61.80
2018-11-05T12:50:45.916Z,62.37
2018-11-05T12:53:14.800Z,61.85
2018-11-05T12:55:43.809Z,62.16
2018-11-05T12:58:12.665Z,61.80
2018-11-05T13:00:41.648Z,61.39
2018-11-05T13:03:10.587Z,61.65
2018-11-05T13:05:39.513Z,61.81
2018-11-05T13:08:08.439Z,61.58
2018-11-05T13:10:37.634Z,61.96
2018-11-05T13:13:06.625Z,61.81
2018-11-05T13:15:35.542Z,62.24
2018-11-05T13:18:04.669Z,61.97
2018-11-05T13:20:33.609Z,62.95
2018-11-05T13:23:02.764Z,63.11
2018-11-05T13:25:31.718Z,63.00
2018-11-05T13:28:00.654Z,62.80
2018-11-05T13:30:29.594Z,62.56
2018-11-05T13:32:58.557Z,62.18
2018-11-05T13:35:27.497Z,63.35
2018-11-05T13:37:56.996Z,62.50
2018-11-05T13:40:25.481Z,63.67
2018-11-05T13:42:54.491Z,63.55
2018-11-05T13:45:25.126Z,63.17
2018-11-05T13:47:54.954Z,63.89
2018-11-05T13:50:23.153Z,63.52
2018-11-05T13:52:52.154Z,63.33
2018-11-05T13:55:21.209Z,64.33
2018-11-05T13:57:50.478Z,63.70
2018-11-05T14:00:20.579Z,64.03
2018-11-05T14:02:49.949Z,63.57
2018-11-05T14:05:18.969Z,63.73
2018-11-05T14:07:47.960Z,63.89
2018-11-05T14:10:18.594Z,64.24
2018-11-05T14:12:47.973Z,64.32
2018-11-05T14:15:16.993Z,64.67
2018-11-05T14:17:46.192Z,64.19
2018-11-05T14:20:16.196Z,63.00
2018-11-05T14:22:45.216Z,62.66
2018-11-05T14:25:15.447Z,63.15
2018-11-05T14:27:45.617Z,63.28
2018-11-05T14:30:14.668Z,63.04
2018-11-05T14:32:45.692Z,62.61
2018-11-05T14:35:14.690Z,62.69
2018-11-05T14:37:43.604Z,63.58
2018-11-05T14:40:13.997Z,63.04
2018-11-05T14:42:43.741Z,63.87
2018-11-05T14:45:20.872Z,64.56
2018-11-05T14:47:51.067Z,64.24
2018-11-05T14:50:21.467Z,63.63
2018-11-05T14:52:50.920Z,63.54
2018-11-05T14:55:20.501Z,63.02
2018-11-05T14:57:50.847Z,63.60
2018-11-05T15:00:21.244Z,63.50
2018-11-05T15:02:50.785Z,63.96
2018-11-05T15:05:19.751Z,64.25
2018-11-05T15:07:52.658Z,63.88
2018-11-05T15:10:23.946Z,64.05
2018-11-05T15:12:52.984Z,64.45
2018-11-05T15:15:22.362Z,64.06
2018-11-05T15:17:51.311Z,63.84
2018-11-05T15:20:21.723Z,64.25
2018-11-05T15:22:50.530Z,63.91
2018-11-05T15:25:20.356Z,63.84
2018-11-05T15:27:49.249Z,62.70
2018-11-05T15:30:19.495Z,63.59
2018-11-05T15:32:48.492Z,63.11
2018-11-05T15:35:17.572Z,63.45
2018-11-05T15:37:46.689Z,62.92
2018-11-05T15:40:17.967Z,63.03
2018-11-05T15:42:46.936Z,63.22
2018-11-05T15:45:17.282Z,62.98
2018-11-05T15:47:46.967Z,62.67
2018-11-05T15:50:17.313Z,62.52
2018-11-05T15:52:46.493Z,61.72
2018-11-05T15:55:15.505Z,61.66
2018-11-05T15:57:44.730Z,62.31
2018-11-05T16:00:16.217Z,62.32
2018-11-05T16:02:46.602Z,63.04
2018-11-05T16:05:15.758Z,62.43
2018-11-05T16:07:44.960Z,61.63
2018-11-05T16:10:13.922Z,62.12
2018-11-05T16:12:42.891Z,61.87
2018-11-05T16:15:12.663Z,62.35
2018-11-05T16:17:41.745Z,62.23
2018-11-05T16:20:13.524Z,62.68
2018-11-05T16:22:42.907Z,62.73
2018-11-05T16:25:12.029Z,63.03
2018-11-05T16:27:41.219Z,62.42
2018-11-05T16:30:12.200Z,62.46
2018-11-05T16:32:41.707Z,62.60
2018-11-05T16:35:11.093Z,62.51
2018-11-05T16:37:40.146Z,62.34
2018-11-05T16:40:11.390Z,63.03
2018-11-05T16:42:40.590Z,63.65
2018-11-05T16:45:10.423Z,62.82
2018-11-05T16:47:39.929Z,63.24
2018-11-05T16:50:14.664Z,62.87
2018-11-05T16:52:43.798Z,62.28
2018-11-05T16:55:13.642Z,62.62
2018-11-05T16:57:43.377Z,63.00
2018-11-05T17:00:13.013Z,63.10
2018-11-05T17:02:42.694Z,63.05
2018-11-05T17:05:12.334Z,62.47
2018-11-05T17:07:41.407Z,62.58
2018-11-05T17:10:12.725Z,61.38
2018-11-05T17:12:42.486Z,61.67
2018-11-05T17:15:13.015Z,61.07
2018-11-05T17:17:42.516Z,61.07
2018-11-05T17:20:13.462Z,60.78
2018-11-05T17:22:42.961Z,60.16
2018-11-05T17:25:12.711Z,59.89
2018-11-05T17:27:42.662Z,60.24
2018-11-05T17:30:14.518Z,60.14
2018-11-05T17:32:43.958Z,59.72
2018-11-05T17:35:13.859Z,59.93
2018-11-05T17:37:43.164Z,60.16
2018-11-05T17:40:13.575Z,60.85
2018-11-05T17:42:42.738Z,61.07
2018-11-05T17:45:13.334Z,60.06
2018-11-05T17:47:42.619Z,60.18
2018-11-05T17:50:14.601Z,60.72
2018-11-05T17:52:44.095Z,61.26
2018-11-05T17:55:13.781Z,60.91
2018-11-05T17:57:43.745Z,61.05
2018-11-05T18:00:14.862Z,61.64
2018-11-05T18:02:43.958Z,60.69
2018-11-05T18:05:13.052Z,60.94
2018-11-05T18:07:42.259Z,61.51
2018-11-05T18:10:11.293Z,61.15
2018-11-05T18:12:40.312Z,60.00
2018-11-05T18:15:10.284Z,60.37
2018-11-05T18:17:39.982Z,60.33
2018-11-05T18:20:10.360Z,60.61
2018-11-05T18:22:39.368Z,60.41
2018-11-05T18:25:10.167Z,61.25
2018-11-05T18:27:39.148Z,60.50
2018-11-05T18:30:09.414Z,60.48
2018-11-05T18:32:39.558Z,61.19
2018-11-05T18:35:15.764Z,60.21
2018-11-05T18:37:46.428Z,61.17
2018-11-05T18:40:15.990Z,60.35
2018-11-05T18:42:45.272Z,60.97
2018-11-05T18:45:14.296Z,61.90
2018-11-05T18:47:43.425Z,61.45
2018-11-05T18:50:13.878Z,61.56
2018-11-05T18:52:43.180Z,61.87
2018-11-05T18:55:15.216Z,61.48
2018-11-05T18:57:48.100Z,61.24
2018-11-05T19:00:20.532Z,61.04
2018-11-05T19:02:50.725Z,62.02
2018-11-05T19:05:20.331Z,62.13
2018-11-05T19:07:49.586Z,61.45
2018-11-05T19:10:18.604Z,61.52
2018-11-05T19:12:48.206Z,61.69
2018-11-05T19:15:17.496Z,62.08
2018-11-05T19:17:47.357Z,61.93
2018-11-05T19:20:16.710Z,62.10
2018-11-05T19:22:46.129Z,61.83
2018-11-05T19:25:16.185Z,62.55
2018-11-05T19:27:45.151Z,62.67
2018-11-05T19:30:16.768Z,62.83
2018-11-05T19:32:46.371Z,62.31
2018-11-05T19:35:15.356Z,62.86
2018-11-05T19:37:44.357Z,62.28
2018-11-05T19:40:14.560Z,62.80
2018-11-05T19:42:45.277Z,62.46
2018-11-05T19:45:16.603Z,62.90
2018-11-05T19:47:46.430Z,63.12
2018-11-05T19:50:18.515Z,63.61
2018-11-05T19:52:49.244Z,63.17
2018-11-05T19:55:19.670Z,63.67
2018-11-05T19:57:49.516Z,63.73
2018-11-05T20:00:27.657Z,63.70
2018-11-05T20:02:59.025Z,63.63
2018-11-05T20:05:33.272Z,63.42
2018-11-05T20:08:03.593Z,64.21
2018-11-05T20:10:32.890Z,64.81
2018-11-05T20:13:02.516Z,64.48
2018-11-05T20:15:33.942Z,64.16
2018-11-05T20:18:10.741Z,64.18
2018-11-05T20:20:44.445Z,63.77
2018-11-05T20:23:17.517Z,64.28
2018-11-05T20:25:50.999Z,64.52
2018-11-05T20:28:20.733Z,64.98
2018-11-05T20:30:53.136Z,64.81
2018-11-05T20:33:23.994Z,64.99
2018-11-05T20:35:55.072Z,65.37
2018-11-05T20:38:25.904Z,65.76
2018-11-05T20:41:01.107Z,64.80
2018-11-05T20:43:36.838Z,66.05
2018-11-05T20:46:08.578Z,65.26
2018-11-05T20:48:43.102Z,65.68
2018-11-05T20:51:14.569Z,65.79
2018-11-05T20:53:46.697Z,65.62
2018-11-05T20:56:19.699Z,65.42
2018-11-05T20:58:52.815Z,66.16
2018-11-05T21:01:25.689Z,66.61
2018-11-05T21:03:55.645Z,66.88
2018-11-05T21:06:24.888Z,66.32
2018-11-05T21:08:53.874Z,67.28
2018-11-05T21:11:22.951Z,67.02
2018-11-05T21:13:51.973Z,66.81
2018-11-05T21:16:20.966Z,67.68
2018-11-05T21:18:50.011Z,67.21
2018-11-05T21:21:19.213Z,67.68
2018-11-05T21:23:47.997Z,68.01
2018-11-05T21:26:17.018Z,67.85
2018-11-05T21:28:46.139Z,67.68
2018-11-05T21:31:15.533Z,68.17
2018-11-05T21:33:44.548Z,68.23
2018-11-05T21:36:13.609Z,68.34
2018-11-05T21:38:42.626Z,69.43
2018-11-05T21:41:11.570Z,69.11
2018-11-05T21:43:40.665Z,69.36
2018-11-05T21:46:09.771Z,70.13
2018-11-05T21:48:38.941Z,70.17
2018-11-05T21:51:07.942Z,70.08
2018-11-05T21:53:36.937Z,70.91
2018-11-05T21:56:06.047Z,70.87
2018-11-05T21:58:35.110Z,71.75
2018-11-05T22:01:04.096Z,71.99
2018-11-05T22:03:33.128Z,72.14
2018-11-05T22:06:02.202Z,72.39
2018-11-05T22:08:31.391Z,72.48
2018-11-05T22:11:00.346Z,72.76
2018-11-05T22:13:36.060Z,73.04
2018-11-05T22:16:05.465Z,73.54
2018-11-05T22:18:34.443Z,73.20
2018-11-05T22:21:03.436Z,73.68
2018-11-05T22:23:32.509Z,73.37
2018-11-05T22:26:01.498Z,73.23
2018-11-05T22:28:30.516Z,73.67
2018-11-05T22:31:06.633Z,73.14
2018-11-05T22:33:35.703Z,72.88
2018-11-05T22:36:04.954Z,73.36
2018-11-05T22:38:33.922Z,73.86
2018-11-05T22:41:02.964Z,73.59
2018-11-05T22:43:32.152Z,74.02
2018-11-05T22:46:01.236Z,73.92
2018-11-05T22:48:30.250Z,74.49
2018-11-05T22:50:59.378Z,74.76
2018-11-05T22:53:28.340Z,74.68
2018-11-05T22:55:57.490Z,76.02
2018-11-05T22:58:26.540Z,75.44
2018-11-05T23:01:01.037Z,75.38
2018-11-05T23:03:30.764Z,76.09
2018-11-05T23:06:00.066Z,76.61
2018-11-05T23:08:29.108Z,76.27
2018-11-05T23:10:58.109Z,76.23
2018-11-05T23:13:27.091Z,76.98
2018-11-05T23:15:56.173Z,77.10
2018-11-05T23:18:25.114Z,76.66
2018-11-05T23:20:54.095Z,77.31
2018-11-05T23:23:23.293Z,77.50
2018-11-05T23:25:52.690Z,77.73
2018-11-05T23:28:21.893Z,77.91
2018-11-05T23:30:52.273Z,77.96
2018-11-05T23:33:21.969Z,78.41
2018-11-05T23:35:50.895Z,77.82
2018-11-05T23:38:19.941Z,78.23
2018-11-05T23:40:49.047Z,78.38
2018-11-05T23:43:17.973Z,77.94
2018-11-05T23:45:46.910Z,78.07
2018-11-05T23:48:17.108Z,78.12
2018-11-05T23:50:46.445Z,78.68
2018-11-05T23:53:15.464Z,78.18
2018-11-05T23:55:44.568Z,78.75
2018-11-05T23:58:13.538Z,79.03
